createdAt,value
2022-11-25T00:01:28.548Z,6.95
2022-11-25T00:03:57.106Z,6.99
2022-11-25T00:06:26.789Z,6.93
2022-11-25T00:08:56.346Z,6.82
2022-11-25T00:11:23.944Z,6.71
2022-11-25T00:13:51.814Z,6.78
2022-11-25T00:16:21.093Z,6.87
2022-11-25T00:18:54.995Z,6.84
2022-11-25T00:21:24.681Z,6.80
2022-11-25T00:23:53.941Z,6.73
2022-11-25T00:26:22.005Z,6.62
2022-11-25T00:28:49.876Z,6.71
2022-11-25T00:31:20.457Z,6.70
2022-11-25T00:33:48.505Z,6.76
2022-11-25T00:36:24.286Z,6.73
2022-11-25T00:39:03.991Z,6.79
2022-11-25T00:41:50.154Z,6.79
2022-11-25T00:44:40.388Z,6.35
2022-11-25T00:47:18.916Z,6.32
2022-11-25T00:49:51.967Z,6.43
2022-11-25T00:52:24.408Z,6.42
2022-11-25T00:54:52.831Z,6.34
2022-11-25T00:57:22.212Z,6.36
2022-11-25T00:59:49.735Z,6.18
2022-11-25T01:02:18.945Z,6.28
2022-11-25T01:04:46.945Z,6.44
2022-11-25T01:07:15.414Z,6.42
2022-11-25T01:09:43.131Z,6.44
2022-11-25T01:12:10.633Z,6.54
2022-11-25T01:14:38.308Z,6.34
2022-11-25T01:17:06.411Z,5.95
2022-11-25T01:19:33.959Z,6.23
2022-11-25T01:22:01.349Z,6.13
2022-11-25T01:24:29.066Z,5.99
2022-11-25T01:26:56.380Z,6.11
2022-11-25T01:29:23.800Z,6.22
2022-11-25T01:31:57.872Z,6.31
2022-11-25T01:34:27.855Z,6.42
2022-11-25T01:36:57.849Z,6.40
2022-11-25T01:39:32.095Z,6.50
2022-11-25T01:42:01.367Z,6.43
2022-11-25T01:44:30.843Z,6.36
2022-11-25T01:47:13.718Z,6.44
2022-11-25T01:49:46.887Z,6.51
2022-11-25T01:52:27.721Z,6.49
2022-11-25T01:55:07.210Z,6.54
2022-11-25T01:57:49.900Z,6.20
2022-11-25T02:00:17.960Z,6.30
2022-11-25T02:02:46.781Z,6.46
2022-11-25T02:05:18.261Z,6.29
2022-11-25T02:07:47.482Z,6.42
2022-11-25T02:10:18.566Z,6.39
2022-11-25T02:12:48.345Z,6.46
2022-11-25T02:15:16.115Z,6.30
2022-11-25T02:17:44.191Z,5.97
2022-11-25T02:20:17.065Z,5.86
2022-11-25T02:22:50.364Z,6.19
2022-11-25T02:25:24.189Z,6.24
2022-11-25T02:27:55.617Z,5.98
2022-11-25T02:30:23.555Z,6.01
2022-11-25T02:32:51.288Z,6.02
2022-11-25T02:35:33.115Z,5.71
2022-11-25T02:38:39.842Z,5.78
2022-11-25T02:41:44.429Z,6.03
2022-11-25T02:44:12.121Z,6.18
2022-11-25T02:46:39.470Z,6.24
2022-11-25T02:49:09.713Z,6.51
2022-11-25T02:51:39.894Z,6.42
2022-11-25T02:54:13.220Z,6.40
2022-11-25T02:56:41.134Z,6.46
2022-11-25T02:59:09.122Z,6.26
2022-11-25T03:01:38.353Z,6.05
2022-11-25T03:04:06.853Z,6.13
2022-11-25T03:06:34.535Z,6.23
2022-11-25T03:09:01.994Z,6.21
2022-11-25T03:11:49.321Z,6.20
2022-11-25T03:14:17.043Z,6.25
2022-11-25T03:16:44.870Z,5.93
2022-11-25T03:19:12.381Z,5.83
2022-11-25T03:21:39.671Z,5.84
2022-11-25T03:24:07.800Z,6.10
2022-11-25T03:26:35.232Z,6.04
2022-11-25T03:29:02.699Z,5.73
2022-11-25T03:31:30.389Z,6.21
2022-11-25T03:33:58.919Z,6.33
2022-11-25T03:36:26.570Z,6.31
2022-11-25T03:38:54.157Z,6.45
2022-11-25T03:41:21.430Z,6.58
2022-11-25T03:43:49.055Z,6.56
2022-11-25T03:46:17.491Z,6.72
2022-11-25T03:48:45.084Z,6.68
2022-11-25T03:51:12.506Z,6.66
2022-11-25T03:53:40.420Z,6.55
2022-11-25T03:56:08.158Z,6.34
2022-11-25T03:58:35.561Z,6.53
2022-11-25T04:01:04.207Z,6.27
2022-11-25T04:03:32.204Z,6.32
2022-11-25T04:05:59.908Z,6.42
2022-11-25T04:08:28.408Z,6.43
2022-11-25T04:10:56.547Z,6.34
2022-11-25T04:13:24.146Z,5.92
2022-11-25T04:15:52.167Z,6.14
2022-11-25T04:18:20.645Z,6.17
2022-11-25T04:20:49.922Z,6.14
2022-11-25T04:23:17.438Z,6.30
2022-11-25T04:25:45.309Z,6.20
2022-11-25T04:28:13.550Z,6.18
2022-11-25T04:30:41.232Z,6.25
2022-11-25T04:33:09.210Z,6.25
2022-11-25T04:35:36.610Z,6.19
2022-11-25T04:38:04.153Z,6.19
2022-11-25T04:40:33.786Z,6.13
2022-11-25T04:43:06.038Z,5.92
2022-11-25T04:45:51.940Z,6.17
2022-11-25T04:48:22.809Z,6.06
2022-11-25T04:50:50.465Z,5.92
2022-11-25T04:53:17.880Z,6.08
2022-11-25T04:55:45.475Z,6.09
2022-11-25T04:58:14.692Z,6.10
2022-11-25T05:00:42.225Z,6.25
2022-11-25T05:03:10.544Z,6.28
2022-11-25T05:05:39.279Z,6.12
2022-11-25T05:08:06.770Z,6.19
2022-11-25T05:10:35.919Z,6.20
2022-11-25T05:13:03.703Z,6.23
2022-11-25T05:15:31.714Z,6.30
2022-11-25T05:17:59.201Z,6.27
2022-11-25T05:20:27.861Z,6.12
2022-11-25T05:22:55.316Z,6.18
2022-11-25T05:25:24.609Z,6.13
2022-11-25T05:27:53.958Z,6.07
2022-11-25T05:30:21.245Z,6.05
2022-11-25T05:32:48.610Z,5.95
2022-11-25T05:35:16.729Z,6.19
2022-11-25T05:37:45.029Z,6.01
2022-11-25T05:40:13.142Z,6.07
2022-11-25T05:42:41.806Z,6.11
2022-11-25T05:45:09.443Z,6.14
2022-11-25T05:47:36.978Z,6.08
2022-11-25T05:50:05.387Z,6.23
2022-11-25T05:52:32.921Z,6.12
2022-11-25T05:55:01.099Z,6.29
2022-11-25T05:57:29.195Z,6.20
2022-11-25T05:59:56.796Z,6.01
2022-11-25T06:02:24.822Z,6.09
2022-11-25T06:04:52.555Z,6.18
2022-11-25T06:07:20.247Z,6.31
2022-11-25T06:09:47.664Z,6.30
2022-11-25T06:12:15.839Z,6.38
2022-11-25T06:14:43.756Z,6.37
2022-11-25T06:17:11.235Z,6.59
2022-11-25T06:19:40.089Z,7.10
2022-11-25T06:22:08.442Z,7.03
2022-11-25T06:24:36.069Z,7.04
2022-11-25T06:27:04.904Z,6.96
2022-11-25T06:29:33.205Z,6.98
2022-11-25T06:32:01.257Z,6.82
2022-11-25T06:34:30.018Z,6.54
2022-11-25T06:37:00.194Z,6.56
2022-11-25T06:39:27.525Z,6.29
2022-11-25T06:41:55.149Z,6.35
2022-11-25T06:44:22.537Z,6.32
2022-11-25T06:46:49.985Z,6.38
2022-11-25T06:49:17.646Z,6.40
2022-11-25T06:51:45.066Z,6.49
2022-11-25T06:54:12.476Z,6.59
2022-11-25T06:56:40.135Z,6.47
2022-11-25T06:59:07.595Z,6.65
2022-11-25T07:01:35.210Z,6.62
2022-11-25T07:04:05.174Z,6.67
2022-11-25T07:06:33.431Z,6.80
2022-11-25T07:09:01.625Z,6.91
2022-11-25T07:11:32.781Z,6.94
2022-11-25T07:14:05.698Z,6.89
2022-11-25T07:16:33.798Z,6.94
2022-11-25T07:19:02.216Z,7.07
2022-11-25T07:21:30.651Z,7.23
2022-11-25T07:24:00.591Z,7.06
2022-11-25T07:26:30.011Z,7.26
2022-11-25T07:29:02.998Z,7.37
2022-11-25T07:31:33.770Z,7.50
2022-11-25T07:34:04.676Z,7.64
2022-11-25T07:36:34.209Z,7.60
2022-11-25T07:39:04.963Z,7.84
2022-11-25T07:41:32.528Z,7.88
2022-11-25T07:44:05.742Z,7.75
2022-11-25T07:46:39.519Z,7.53
2022-11-25T07:49:11.633Z,7.64
2022-11-25T07:51:41.891Z,7.78
2022-11-25T07:54:12.352Z,7.95
2022-11-25T07:56:45.687Z,8.08
2022-11-25T07:59:17.974Z,8.03
2022-11-25T08:01:47.408Z,8.41
2022-11-25T08:04:20.074Z,8.43
2022-11-25T08:06:49.488Z,8.62
2022-11-25T08:09:22.113Z,8.62
2022-11-25T08:11:49.996Z,8.49
2022-11-25T08:14:18.563Z,8.59
2022-11-25T08:16:46.115Z,8.85
2022-11-25T08:19:15.542Z,9.06
2022-11-25T08:21:43.394Z,9.08
2022-11-25T08:24:16.364Z,9.34
2022-11-25T08:26:44.242Z,9.36
2022-11-25T08:29:14.189Z,9.40
2022-11-25T08:31:43.061Z,9.31
2022-11-25T08:34:21.584Z,9.47
2022-11-25T08:36:49.631Z,9.55
2022-11-25T08:39:50.429Z,9.61
2022-11-25T08:42:07.412Z,9.66
2022-11-25T08:44:35.937Z,9.76
2022-11-25T08:47:03.850Z,9.86
2022-11-25T08:49:34.932Z,9.90
2022-11-25T08:52:08.098Z,10.15
2022-11-25T08:54:35.498Z,10.10
2022-11-25T08:57:02.947Z,10.08
2022-11-25T08:59:30.550Z,10.15
2022-11-25T09:01:58.045Z,9.83
2022-11-25T09:04:25.818Z,9.95
2022-11-25T09:06:53.486Z,10.19
2022-11-25T09:09:20.795Z,10.07
2022-11-25T09:11:48.191Z,10.22
2022-11-25T09:14:15.983Z,10.22
2022-11-25T09:16:43.447Z,10.36
2022-11-25T09:19:10.864Z,10.48
2022-11-25T09:21:38.617Z,10.54
2022-11-25T09:24:06.359Z,10.63
2022-11-25T09:26:35.865Z,10.33
2022-11-25T09:29:03.899Z,10.38
2022-11-25T09:31:31.396Z,10.51
2022-11-25T09:33:58.927Z,10.43
2022-11-25T09:36:26.792Z,10.56
2022-11-25T09:38:54.414Z,10.53
2022-11-25T09:41:48.098Z,10.83
2022-11-25T09:44:58.916Z,10.60
2022-11-25T09:47:57.057Z,10.77
2022-11-25T09:50:56.284Z,10.64
2022-11-25T09:53:48.205Z,10.75
2022-11-25T09:56:28.049Z,10.95
2022-11-25T09:59:00.088Z,10.94
2022-11-25T10:01:28.149Z,11.23
2022-11-25T10:04:02.965Z,11.33
2022-11-25T10:06:33.498Z,11.34
2022-11-25T10:09:11.647Z,11.39
2022-11-25T10:11:40.018Z,11.09
2022-11-25T10:14:35.395Z,10.80
2022-11-25T10:17:30.035Z,10.96
2022-11-25T10:20:00.237Z,10.69
2022-11-25T10:22:33.059Z,10.72
2022-11-25T10:25:14.522Z,11.14
2022-11-25T10:27:47.563Z,11.21
2022-11-25T10:30:22.161Z,11.16
2022-11-25T10:33:17.701Z,11.23
2022-11-25T10:35:49.809Z,11.48
2022-11-25T10:38:26.352Z,11.37
2022-11-25T10:40:54.725Z,11.63
2022-11-25T10:43:24.100Z,11.19
2022-11-25T10:46:13.682Z,11.36
2022-11-25T10:48:55.154Z,11.58
2022-11-25T10:51:34.311Z,11.55
2022-11-25T10:54:26.783Z,11.52
2022-11-25T10:57:00.860Z,11.78
2022-11-25T10:59:39.229Z,11.92
2022-11-25T11:02:16.087Z,11.99
2022-11-25T11:04:53.888Z,11.93
2022-11-25T11:07:22.478Z,11.87
2022-11-25T11:09:50.034Z,11.94
2022-11-25T11:12:24.911Z,12.09
2022-11-25T11:14:54.152Z,12.37
2022-11-25T11:17:31.907Z,12.10
2022-11-25T11:20:06.779Z,12.07
2022-11-25T11:22:46.469Z,12.14
2022-11-25T11:25:20.277Z,12.22
2022-11-25T11:27:47.918Z,12.27
2022-11-25T11:30:18.116Z,12.05
2022-11-25T11:33:07.139Z,12.18
2022-11-25T11:35:51.365Z,12.07
2022-11-25T11:38:28.082Z,12.24
2022-11-25T11:41:06.029Z,12.35
2022-11-25T11:44:14.695Z,12.49
2022-11-25T11:46:52.362Z,12.33
2022-11-25T11:49:52.625Z,12.39
2022-11-25T11:52:31.195Z,12.18
2022-11-25T11:56:05.680Z,12.39
2022-11-25T11:58:59.636Z,12.23
2022-11-25T12:01:45.170Z,12.18
2022-11-25T12:04:21.434Z,12.38
2022-11-25T12:07:02.441Z,12.48
2022-11-25T12:09:32.677Z,12.53
2022-11-25T12:12:04.362Z,12.62
2022-11-25T12:14:51.073Z,12.47
2022-11-25T12:17:23.337Z,12.55
2022-11-25T12:20:01.445Z,12.74
2022-11-25T12:22:32.586Z,12.80
2022-11-25T12:25:22.651Z,12.67
2022-11-25T12:28:07.400Z,12.68
2022-11-25T12:30:40.688Z,12.63
2022-11-25T12:33:16.553Z,12.66
2022-11-25T12:35:46.826Z,12.70
2022-11-25T12:38:26.118Z,12.71
2022-11-25T12:41:06.531Z,12.90
2022-11-25T12:43:49.474Z,12.72
2022-11-25T12:46:17.912Z,12.79
2022-11-25T12:48:45.346Z,12.95
2022-11-25T12:51:46.430Z,13.19
2022-11-25T12:54:33.622Z,13.17
2022-11-25T12:57:19.570Z,13.21
2022-11-25T13:03:17.760Z,13.42
2022-11-25T13:06:23.884Z,13.15
2022-11-25T13:08:59.969Z,13.18
2022-11-25T13:11:46.145Z,13.26
2022-11-25T13:14:24.542Z,13.19
2022-11-25T13:16:54.072Z,13.24
2022-11-25T13:19:23.041Z,13.14
2022-11-25T13:21:57.489Z,12.88
2022-11-25T13:24:31.527Z,12.87
2022-11-25T13:27:01.186Z,12.70
2022-11-25T13:29:28.692Z,12.51
2022-11-25T13:32:02.853Z,12.52
2022-11-25T13:34:31.170Z,12.39
2022-11-25T13:37:00.456Z,12.52
2022-11-25T13:39:33.598Z,12.62
2022-11-25T13:42:33.612Z,12.51
2022-11-25T13:45:01.169Z,12.50
2022-11-25T13:47:39.044Z,12.53
2022-11-25T13:50:21.969Z,12.64
2022-11-25T13:53:06.163Z,12.75
2022-11-25T13:55:39.495Z,12.72
2022-11-25T13:58:10.069Z,12.76
2022-11-25T14:00:37.280Z,12.66
2022-11-25T14:03:19.869Z,12.58
2022-11-25T14:06:28.266Z,12.51
2022-11-25T14:09:03.678Z,12.58
2022-11-25T14:11:36.411Z,12.56
2022-11-25T14:14:49.509Z,12.63
2022-11-25T14:17:38.609Z,12.51
2022-11-25T14:20:22.085Z,12.42
2022-11-25T14:23:05.513Z,12.44
2022-11-25T14:25:56.895Z,12.57
2022-11-25T14:28:54.019Z,12.42
2022-11-25T14:31:27.055Z,12.40
2022-11-25T14:33:58.087Z,12.38
2022-11-25T14:36:38.997Z,12.34
2022-11-25T14:39:10.102Z,12.35
2022-11-25T14:42:03.940Z,12.35
2022-11-25T14:44:59.254Z,12.36
2022-11-25T14:47:29.985Z,12.18
2022-11-25T14:50:26.568Z,12.07
2022-11-25T14:52:47.903Z,12.10
2022-11-25T14:55:28.839Z,11.95
2022-11-25T14:57:56.532Z,11.97
2022-11-25T15:00:24.102Z,11.83
2022-11-25T15:02:57.183Z,11.72
2022-11-25T15:05:40.945Z,11.45
2022-11-25T15:08:17.830Z,11.57
2022-11-25T15:10:52.286Z,11.48
2022-11-25T15:13:27.291Z,11.38
2022-11-25T15:15:55.942Z,11.38
2022-11-25T15:18:24.765Z,11.33
2022-11-25T15:20:56.746Z,11.35
2022-11-25T15:23:34.782Z,11.23
2022-11-25T15:26:02.729Z,10.93
2022-11-25T15:28:37.917Z,10.87
2022-11-25T15:31:18.754Z,10.85
2022-11-25T15:33:47.922Z,10.88
2022-11-25T15:36:15.315Z,10.63
2022-11-25T15:38:46.615Z,10.64
2022-11-25T15:41:34.565Z,10.43
2022-11-25T15:44:03.803Z,10.29
2022-11-25T15:46:34.361Z,10.27
2022-11-25T15:49:06.607Z,10.23
2022-11-25T15:51:41.518Z,10.20
2022-11-25T15:54:25.727Z,10.26
2022-11-25T15:56:56.532Z,10.09
2022-11-25T15:59:56.522Z,10.05
2022-11-25T16:02:48.998Z,9.93
2022-11-25T16:05:22.920Z,10.05
2022-11-25T16:07:50.390Z,10.08
2022-11-25T16:10:33.861Z,10.01
2022-11-25T16:13:21.833Z,9.93
2022-11-25T16:15:57.924Z,9.79
2022-11-25T16:18:51.271Z,9.61
2022-11-25T16:21:22.969Z,9.60
2022-11-25T16:23:57.207Z,9.53
2022-11-25T16:26:30.281Z,9.60
2022-11-25T16:29:00.148Z,9.46
2022-11-25T16:31:28.612Z,9.50
2022-11-25T16:34:00.727Z,9.40
2022-11-25T16:36:28.372Z,9.41
2022-11-25T16:38:55.754Z,9.44
2022-11-25T16:41:26.865Z,9.19
2022-11-25T16:43:58.610Z,9.19
2022-11-25T16:46:28.235Z,9.11
2022-11-25T16:48:55.841Z,9.06
2022-11-25T16:51:25.460Z,9.15
2022-11-25T16:53:52.770Z,9.20
2022-11-25T16:56:25.515Z,9.15
2022-11-25T16:58:52.681Z,9.19
2022-11-25T17:01:21.801Z,9.13
2022-11-25T17:03:52.334Z,9.08
2022-11-25T17:06:22.715Z,9.01
2022-11-25T17:08:50.720Z,9.00
2022-11-25T17:11:25.871Z,8.85
2022-11-25T17:13:53.806Z,8.71
2022-11-25T17:16:24.215Z,8.33
2022-11-25T17:18:53.718Z,8.60
2022-11-25T17:21:26.826Z,8.54
2022-11-25T17:23:58.478Z,8.76
2022-11-25T17:26:40.480Z,8.59
2022-11-25T17:29:12.760Z,8.57
2022-11-25T17:31:40.725Z,8.48
2022-11-25T17:34:12.526Z,8.56
2022-11-25T17:36:40.253Z,8.48
2022-11-25T17:39:13.513Z,8.54
2022-11-25T17:41:43.735Z,8.33
2022-11-25T17:44:16.437Z,8.34
2022-11-25T17:46:44.949Z,8.36
2022-11-25T17:49:15.113Z,8.18
2022-11-25T17:51:43.473Z,8.41
2022-11-25T17:54:11.195Z,8.28
2022-11-25T17:56:40.105Z,8.33
2022-11-25T17:59:25.604Z,8.31
2022-11-25T18:01:53.544Z,8.38
2022-11-25T18:04:30.886Z,8.30
2022-11-25T18:06:58.393Z,7.98
2022-11-25T18:09:25.980Z,7.99
2022-11-25T18:11:55.617Z,7.98
2022-11-25T18:14:35.608Z,7.98
2022-11-25T18:17:06.023Z,7.89
2022-11-25T18:19:34.376Z,7.78
2022-11-25T18:22:12.632Z,7.88
2022-11-25T18:24:41.039Z,7.83
2022-11-25T18:27:14.473Z,7.97
2022-11-25T18:29:42.045Z,7.87
2022-11-25T18:32:10.162Z,7.75
2022-11-25T18:34:37.635Z,7.73
2022-11-25T18:37:05.546Z,7.79
2022-11-25T18:39:32.893Z,7.64
2022-11-25T18:42:00.828Z,7.55
2022-11-25T18:44:31.632Z,7.66
2022-11-25T18:46:58.939Z,7.71
2022-11-25T18:49:26.285Z,7.66
2022-11-25T18:51:53.890Z,7.43
2022-11-25T18:54:21.207Z,7.53
2022-11-25T18:56:51.682Z,7.43
2022-11-25T18:59:26.282Z,7.35
2022-11-25T19:01:54.288Z,7.36
2022-11-25T19:04:21.922Z,7.31
2022-11-25T19:06:49.437Z,7.38
2022-11-25T19:09:16.798Z,7.25
2022-11-25T19:11:50.515Z,7.28
2022-11-25T19:14:30.598Z,7.19
2022-11-25T19:17:02.194Z,7.21
2022-11-25T19:19:29.919Z,7.16
2022-11-25T19:22:01.150Z,7.09
2022-11-25T19:24:29.042Z,7.12
2022-11-25T19:26:57.456Z,7.14
2022-11-25T19:29:37.500Z,6.98
2022-11-25T19:32:12.091Z,7.00
2022-11-25T19:34:43.914Z,6.98
2022-11-25T19:37:15.985Z,6.99
2022-11-25T19:39:43.558Z,6.91
2022-11-25T19:42:11.067Z,6.81
2022-11-25T19:44:38.718Z,6.78
2022-11-25T19:47:15.202Z,6.82
2022-11-25T19:49:43.830Z,6.67
2022-11-25T19:52:16.675Z,6.75
2022-11-25T19:54:44.060Z,6.76
2022-11-25T19:57:20.619Z,6.72
2022-11-25T19:59:48.323Z,6.62
2022-11-25T20:02:20.624Z,6.66
2022-11-25T20:04:50.041Z,6.57
2022-11-25T20:07:19.099Z,6.55
2022-11-25T20:09:47.663Z,6.49
2022-11-25T20:12:20.099Z,6.46
2022-11-25T20:14:47.927Z,6.50
2022-11-25T20:17:32.239Z,6.54
2022-11-25T20:20:07.441Z,6.42
2022-11-25T20:22:36.436Z,6.32
2022-11-25T20:25:06.099Z,6.34
2022-11-25T20:27:34.201Z,6.29
2022-11-25T20:30:01.850Z,6.30
2022-11-25T20:32:30.957Z,6.27
2022-11-25T20:34:58.782Z,6.34
2022-11-25T20:37:28.575Z,6.49
2022-11-25T20:39:57.645Z,6.50
2022-11-25T20:42:25.103Z,6.49
2022-11-25T20:44:57.332Z,6.44
2022-11-25T20:47:26.282Z,6.35
2022-11-25T20:49:54.038Z,6.37
2022-11-25T20:52:28.223Z,6.33
2022-11-25T20:54:56.129Z,6.35
2022-11-25T20:57:23.777Z,6.23
2022-11-25T20:59:51.313Z,6.04
2022-11-25T21:02:21.544Z,6.16
2022-11-25T21:04:49.098Z,6.01
2022-11-25T21:07:17.889Z,6.17
2022-11-25T21:09:45.642Z,6.16
2022-11-25T21:12:18.826Z,6.07
2022-11-25T21:14:47.456Z,5.91
2022-11-25T21:17:14.977Z,6.00
2022-11-25T21:19:42.299Z,5.91
2022-11-25T21:22:13.692Z,5.93
2022-11-25T21:24:41.899Z,5.96
2022-11-25T21:27:15.568Z,5.86
2022-11-25T21:29:44.420Z,5.88
2022-11-25T21:32:22.859Z,5.87
2022-11-25T21:34:50.589Z,5.76
2022-11-25T21:37:36.508Z,5.76
2022-11-25T21:40:10.173Z,5.73
2022-11-25T21:42:37.464Z,5.83
2022-11-25T21:45:05.607Z,5.88
2022-11-25T21:47:32.941Z,5.97
2022-11-25T21:50:00.645Z,5.90
2022-11-25T21:52:28.288Z,5.97
2022-11-25T21:54:55.586Z,5.96
2022-11-25T21:57:28.098Z,6.10
2022-11-25T21:59:55.768Z,6.26
2022-11-25T22:02:24.283Z,6.43
2022-11-25T22:04:52.093Z,6.33
2022-11-25T22:07:19.781Z,6.34
2022-11-25T22:09:47.191Z,6.42
2022-11-25T22:12:38.163Z,6.46
2022-11-25T22:15:22.912Z,6.64
2022-11-25T22:17:53.424Z,6.77
2022-11-25T22:20:33.184Z,6.70
2022-11-25T22:23:01.595Z,6.77
2022-11-25T22:25:30.291Z,6.75
2022-11-25T22:27:58.044Z,6.69
2022-11-25T22:30:25.662Z,6.80
2022-11-25T22:32:59.478Z,6.80
2022-11-25T22:35:27.897Z,6.95
2022-11-25T22:37:55.717Z,6.89
2022-11-25T22:40:23.876Z,6.90
2022-11-25T22:42:52.267Z,6.96
2022-11-25T22:45:33.767Z,6.95
2022-11-25T22:48:04.626Z,6.82
2022-11-25T22:50:33.467Z,6.82
2022-11-25T22:53:01.653Z,6.66
2022-11-25T22:55:31.097Z,6.92
2022-11-25T22:58:00.616Z,6.78
2022-11-25T23:00:40.933Z,6.79
2022-11-25T23:03:15.642Z,6.88
2022-11-25T23:05:43.264Z,6.91
2022-11-25T23:08:16.546Z,6.87
2022-11-25T23:10:44.915Z,6.79
2022-11-25T23:13:12.774Z,6.86
2022-11-25T23:15:45.128Z,6.67
2022-11-25T23:18:16.358Z,6.74
2022-11-25T23:20:43.712Z,6.74
2022-11-25T23:23:18.918Z,6.71
2022-11-25T23:25:47.269Z,6.79
2022-11-25T23:28:16.248Z,6.69
2022-11-25T23:30:50.183Z,6.60
2022-11-25T23:33:38.644Z,6.69
2022-11-25T23:36:09.883Z,6.54
2022-11-25T23:38:52.403Z,6.69
2022-11-25T23:41:22.383Z,6.74
2022-11-25T23:43:50.054Z,6.74
2022-11-25T23:46:21.437Z,6.70
2022-11-25T23:48:54.030Z,6.48
2022-11-25T23:51:23.549Z,6.53
2022-11-25T23:53:51.635Z,6.37
2022-11-25T23:56:19.138Z,6.62
2022-11-25T23:58:46.820Z,6.75
